createdAt,value
2023-02-28T00:00:33.576Z,68.61
2023-02-28T00:03:00.101Z,68.48
2023-02-28T00:05:28.114Z,69.27
2023-02-28T00:07:55.229Z,69.33
2023-02-28T00:10:25.004Z,69.11
2023-02-28T00:12:52.995Z,69.62
2023-02-28T00:15:19.715Z,69.14
2023-02-28T00:17:46.594Z,70.63
2023-02-28T00:20:14.260Z,70.05
2023-02-28T00:22:43.274Z,70.99
2023-02-28T00:25:11.554Z,71.01
2023-02-28T00:27:40.140Z,71.16
2023-02-28T00:30:08.033Z,71.41
2023-02-28T00:32:35.538Z,71.38
2023-02-28T00:35:03.282Z,71.46
2023-02-28T00:37:29.922Z,71.90
2023-02-28T00:39:56.601Z,72.42
2023-02-28T00:42:23.779Z,72.67
2023-02-28T00:44:50.213Z,72.95
2023-02-28T00:47:16.947Z,73.16
2023-02-28T00:49:43.854Z,72.61
2023-02-28T00:52:10.726Z,73.34
2023-02-28T00:54:37.227Z,74.31
2023-02-28T00:57:03.785Z,73.86
2023-02-28T00:59:31.882Z,74.33
2023-02-28T01:01:58.862Z,74.16
2023-02-28T01:04:25.453Z,74.95
2023-02-28T01:06:51.983Z,74.76
2023-02-28T01:09:18.446Z,74.09
2023-02-28T01:11:45.126Z,74.65
2023-02-28T01:14:17.156Z,75.43
2023-02-28T01:16:45.809Z,75.82
2023-02-28T01:19:12.273Z,75.76
2023-02-28T01:21:38.923Z,75.42
2023-02-28T01:24:06.333Z,75.69
2023-02-28T01:26:32.877Z,75.71
2023-02-28T01:28:59.697Z,76.17
2023-02-28T01:31:27.199Z,76.76
2023-02-28T01:33:54.117Z,77.00
2023-02-28T01:36:24.598Z,76.93
2023-02-28T01:38:51.625Z,77.26
2023-02-28T01:41:32.089Z,77.92
2023-02-28T01:44:28.480Z,77.78
2023-02-28T01:46:56.141Z,77.78
2023-02-28T01:49:22.843Z,77.97
2023-02-28T01:51:57.133Z,78.44
2023-02-28T01:54:30.307Z,78.99
2023-02-28T01:57:06.896Z,79.28
2023-02-28T01:59:41.495Z,79.50
2023-02-28T02:02:08.224Z,79.66
2023-02-28T02:05:02.624Z,80.59
2023-02-28T02:07:34.853Z,80.36
2023-02-28T02:10:10.924Z,80.53
2023-02-28T02:12:49.567Z,80.58
2023-02-28T02:15:57.354Z,80.40
2023-02-28T02:18:46.605Z,80.23
2023-02-28T02:21:16.105Z,79.79
2023-02-28T02:24:00.598Z,80.36
2023-02-28T02:26:45.441Z,80.16
2023-02-28T02:29:39.783Z,80.60
2023-02-28T02:32:41.674Z,79.94
2023-02-28T02:35:30.593Z,79.71
2023-02-28T02:38:17.475Z,80.06
2023-02-28T02:40:56.378Z,80.18
2023-02-28T02:43:36.868Z,80.65
2023-02-28T02:46:10.449Z,81.48
2023-02-28T02:48:41.494Z,80.96
2023-02-28T02:51:15.200Z,81.32
2023-02-28T02:53:50.236Z,81.10
2023-02-28T02:56:20.945Z,81.25
2023-02-28T02:58:50.459Z,81.76
2023-02-28T03:01:28.748Z,81.82
2023-02-28T03:04:02.634Z,81.24
2023-02-28T03:06:29.246Z,81.67
2023-02-28T03:08:55.746Z,81.61
2023-02-28T03:11:23.078Z,81.99
2023-02-28T03:14:31.588Z,82.68
2023-02-28T03:17:04.228Z,82.56
2023-02-28T03:19:52.082Z,82.49
2023-02-28T03:22:53.164Z,82.58
2023-02-28T03:25:32.911Z,82.83
2023-02-28T03:28:22.983Z,83.18
2023-02-28T03:30:55.135Z,84.03
2023-02-28T03:33:28.120Z,83.44
2023-02-28T03:36:00.360Z,83.36
2023-02-28T03:38:49.680Z,83.81
2023-02-28T03:41:33.235Z,83.37
2023-02-28T03:44:07.309Z,83.67
2023-02-28T03:46:38.415Z,84.12
2023-02-28T03:49:15.482Z,84.10
2023-02-28T03:51:43.723Z,84.39
2023-02-28T03:54:17.012Z,84.02
2023-02-28T03:56:55.199Z,84.05
2023-02-28T03:59:35.407Z,84.76
2023-02-28T04:02:02.314Z,84.46
2023-02-28T04:04:29.379Z,84.77
2023-02-28T04:07:04.310Z,84.75
2023-02-28T04:09:30.823Z,84.75
2023-02-28T04:11:57.338Z,83.95
2023-02-28T04:14:25.308Z,84.26
2023-02-28T04:16:52.127Z,84.90
2023-02-28T04:19:18.963Z,85.32
2023-02-28T04:21:48.624Z,84.99
2023-02-28T04:24:18.542Z,84.99
2023-02-28T04:26:47.640Z,84.57
2023-02-28T04:29:19.019Z,85.26
2023-02-28T04:31:45.607Z,85.45
2023-02-28T04:34:12.211Z,85.26
2023-02-28T04:36:38.668Z,85.90
2023-02-28T04:39:05.136Z,86.00
2023-02-28T04:41:32.792Z,86.72
2023-02-28T04:43:59.798Z,85.95
2023-02-28T04:46:26.580Z,86.19
2023-02-28T04:48:54.590Z,86.56
2023-02-28T04:51:21.094Z,87.04
2023-02-28T04:53:48.995Z,86.45
2023-02-28T04:56:17.701Z,86.02
2023-02-28T04:58:44.716Z,86.46
2023-02-28T05:01:28.011Z,86.65
2023-02-28T05:03:56.276Z,86.57
2023-02-28T05:06:24.965Z,85.69
2023-02-28T05:08:52.172Z,85.93
2023-02-28T05:11:27.375Z,86.46
2023-02-28T05:13:55.050Z,86.31
2023-02-28T05:16:22.153Z,86.50
2023-02-28T05:18:48.753Z,86.36
2023-02-28T05:21:29.461Z,86.39
2023-02-28T05:23:57.687Z,86.70
2023-02-28T05:26:25.095Z,86.65
2023-02-28T05:28:51.680Z,86.64
2023-02-28T05:31:18.234Z,87.15
2023-02-28T05:33:44.836Z,87.63
2023-02-28T05:36:11.530Z,87.02
2023-02-28T05:38:39.029Z,87.34
2023-02-28T05:41:07.730Z,88.19
2023-02-28T05:43:34.373Z,88.56
2023-02-28T05:46:06.622Z,88.80
2023-02-28T05:48:35.444Z,88.15
2023-02-28T05:51:03.458Z,88.25
2023-02-28T05:53:30.465Z,88.04
2023-02-28T05:55:57.008Z,88.24
2023-02-28T05:58:24.229Z,88.67
2023-02-28T06:00:50.693Z,88.41
2023-02-28T06:03:17.241Z,88.52
2023-02-28T06:05:43.714Z,88.66
2023-02-28T06:08:10.237Z,88.51
2023-02-28T06:10:36.747Z,88.03
2023-02-28T06:13:06.540Z,88.96
2023-02-28T06:15:33.490Z,88.54
2023-02-28T06:18:00.036Z,88.30
2023-02-28T06:20:30.170Z,87.77
2023-02-28T06:22:59.430Z,87.79
2023-02-28T06:25:27.269Z,86.84
2023-02-28T06:27:54.776Z,87.70
2023-02-28T06:30:26.134Z,86.96
2023-02-28T06:32:53.039Z,86.87
2023-02-28T06:35:19.704Z,86.21
2023-02-28T06:37:48.278Z,86.67
2023-02-28T06:40:15.811Z,85.95
2023-02-28T06:42:42.355Z,85.03
2023-02-28T06:45:10.286Z,84.60
2023-02-28T06:47:39.089Z,84.63
2023-02-28T06:50:06.550Z,84.38
2023-02-28T06:52:33.266Z,83.68
2023-02-28T06:55:02.861Z,83.94
2023-02-28T06:57:34.336Z,83.14
2023-02-28T07:00:01.876Z,82.93
2023-02-28T07:02:28.852Z,82.41
2023-02-28T07:04:55.577Z,82.13
2023-02-28T07:07:22.160Z,81.90
2023-02-28T07:09:48.614Z,82.83
2023-02-28T07:12:15.053Z,82.38
2023-02-28T07:14:41.558Z,81.70
2023-02-28T07:17:09.596Z,82.41
2023-02-28T07:19:36.050Z,82.13
2023-02-28T07:22:03.834Z,82.18
2023-02-28T07:24:30.588Z,81.86
2023-02-28T07:26:57.687Z,81.36
2023-02-28T07:29:24.176Z,79.50
2023-02-28T07:31:53.964Z,77.49
2023-02-28T07:34:21.236Z,77.16
2023-02-28T07:36:47.848Z,76.56
2023-02-28T07:39:14.406Z,76.84
2023-02-28T07:41:44.367Z,76.87
2023-02-28T07:44:11.931Z,75.09
2023-02-28T07:46:38.930Z,75.84
2023-02-28T07:49:06.709Z,73.88
2023-02-28T07:51:33.227Z,75.00
2023-02-28T07:53:59.737Z,75.41
2023-02-28T07:56:26.265Z,75.20
2023-02-28T07:58:52.756Z,73.39
2023-02-28T08:01:20.425Z,73.11
2023-02-28T08:03:46.941Z,73.69
2023-02-28T08:06:19.996Z,73.75
2023-02-28T08:08:46.836Z,71.01
2023-02-28T08:11:13.796Z,70.81
2023-02-28T08:13:40.426Z,70.71
2023-02-28T08:16:07.258Z,68.05
2023-02-28T08:18:34.298Z,65.90
2023-02-28T08:21:01.056Z,63.14
2023-02-28T08:23:27.535Z,65.46
2023-02-28T08:25:57.800Z,66.88
2023-02-28T08:28:27.029Z,64.76
2023-02-28T08:30:54.694Z,65.51
2023-02-28T08:33:21.711Z,64.72
2023-02-28T08:35:48.218Z,63.75
2023-02-28T08:38:14.668Z,64.15
2023-02-28T08:40:41.676Z,66.60
2023-02-28T08:43:08.164Z,66.66
2023-02-28T08:45:34.673Z,66.19
2023-02-28T08:48:01.167Z,65.90
2023-02-28T08:50:27.678Z,66.28
2023-02-28T08:52:54.116Z,63.42
2023-02-28T08:55:20.595Z,62.35
2023-02-28T08:57:47.026Z,60.75
2023-02-28T09:00:14.554Z,59.37
2023-02-28T09:02:43.663Z,59.48
2023-02-28T09:05:11.081Z,59.52
2023-02-28T09:07:37.596Z,60.36
2023-02-28T09:10:04.608Z,60.34
2023-02-28T09:12:35.790Z,59.59
2023-02-28T09:15:03.247Z,58.43
2023-02-28T09:17:30.903Z,59.40
2023-02-28T09:19:58.021Z,57.32
2023-02-28T09:22:24.869Z,57.50
2023-02-28T09:24:51.359Z,58.49
2023-02-28T09:27:17.950Z,57.52
2023-02-28T09:29:44.584Z,57.40
2023-02-28T09:32:11.217Z,56.62
2023-02-28T09:34:39.199Z,57.77
2023-02-28T09:37:05.801Z,56.23
2023-02-28T09:39:32.791Z,55.63
2023-02-28T09:41:59.720Z,54.31
2023-02-28T09:44:32.619Z,54.73
2023-02-28T09:47:06.264Z,53.84
2023-02-28T09:49:39.929Z,52.86
2023-02-28T09:52:18.141Z,51.24
2023-02-28T09:54:44.626Z,48.84
2023-02-28T09:57:48.048Z,47.41
2023-02-28T10:00:19.090Z,48.93
2023-02-28T10:03:13.253Z,49.38
2023-02-28T10:05:44.601Z,50.39
2023-02-28T10:08:16.986Z,49.90
2023-02-28T10:10:47.830Z,51.75
2023-02-28T10:13:26.600Z,50.23
2023-02-28T10:16:04.912Z,47.73
2023-02-28T10:18:42.517Z,46.75
2023-02-28T10:21:21.855Z,45.95
2023-02-28T10:23:49.554Z,47.11
2023-02-28T10:26:19.002Z,44.72
2023-02-28T10:28:46.214Z,45.70
2023-02-28T10:31:18.908Z,48.94
2023-02-28T10:33:45.790Z,46.96
2023-02-28T10:36:17.489Z,43.82
2023-02-28T10:38:46.261Z,43.74
2023-02-28T10:41:18.293Z,44.41
2023-02-28T10:43:48.496Z,43.46
2023-02-28T10:46:26.585Z,41.72
2023-02-28T10:49:06.161Z,43.50
2023-02-28T10:51:40.980Z,45.07
2023-02-28T10:54:17.482Z,43.54
2023-02-28T10:56:43.931Z,42.27
2023-02-28T10:59:16.503Z,41.50
2023-02-28T11:01:53.810Z,41.25
2023-02-28T11:04:23.218Z,40.32
2023-02-28T11:07:23.144Z,39.11
2023-02-28T11:09:56.339Z,40.84
2023-02-28T11:12:46.844Z,40.44
2023-02-28T11:15:34.612Z,45.12
2023-02-28T11:18:05.925Z,41.34
2023-02-28T11:20:34.521Z,41.18
2023-02-28T11:23:03.922Z,41.98
2023-02-28T11:25:34.531Z,41.43
2023-02-28T11:28:05.606Z,38.74
2023-02-28T11:30:38.519Z,38.46
2023-02-28T11:33:28.641Z,42.01
2023-02-28T11:36:02.507Z,39.66
2023-02-28T11:38:29.088Z,42.42
2023-02-28T11:41:13.243Z,41.66
2023-02-28T11:44:11.924Z,39.21
2023-02-28T11:46:48.859Z,41.49
2023-02-28T11:49:33.131Z,39.47
2023-02-28T11:52:35.371Z,40.66
2023-02-28T11:55:18.771Z,39.29
2023-02-28T11:57:45.143Z,39.46
2023-02-28T12:00:31.166Z,37.49
2023-02-28T12:03:19.031Z,36.97
2023-02-28T12:05:50.696Z,36.84
2023-02-28T12:08:46.232Z,37.03
2023-02-28T12:11:21.878Z,34.29
2023-02-28T12:13:58.778Z,33.45
2023-02-28T12:16:34.129Z,32.75
2023-02-28T12:19:22.601Z,31.55
2023-02-28T12:21:58.259Z,32.16
2023-02-28T12:24:36.369Z,33.02
2023-02-28T12:27:07.211Z,33.37
2023-02-28T12:29:45.652Z,37.58
2023-02-28T12:32:24.761Z,36.46
2023-02-28T12:35:09.554Z,38.73
2023-02-28T12:37:42.039Z,39.37
2023-02-28T12:40:12.678Z,37.95
2023-02-28T12:42:47.143Z,38.58
2023-02-28T12:45:21.198Z,36.87
2023-02-28T12:47:53.841Z,35.14
2023-02-28T12:50:20.964Z,35.50
2023-02-28T12:53:07.761Z,36.95
2023-02-28T12:55:52.696Z,36.69
2023-02-28T12:58:25.249Z,35.52
2023-02-28T13:01:29.767Z,35.50
2023-02-28T13:04:24.299Z,37.96
2023-02-28T13:07:18.722Z,36.62
2023-02-28T13:10:00.599Z,39.27
2023-02-28T13:12:27.894Z,41.51
2023-02-28T13:15:22.115Z,40.50
2023-02-28T13:17:54.288Z,40.50
2023-02-28T13:20:24.928Z,40.88
2023-02-28T13:22:54.346Z,41.26
2023-02-28T13:25:23.501Z,42.28
2023-02-28T13:27:57.126Z,42.29
2023-02-28T13:30:59.527Z,43.02
2023-02-28T13:33:31.385Z,43.79
2023-02-28T13:36:31.350Z,42.98
2023-02-28T13:39:02.613Z,42.62
2023-02-28T13:41:31.919Z,42.63
2023-02-28T13:44:12.654Z,43.54
2023-02-28T13:46:48.292Z,44.97
2023-02-28T13:49:26.685Z,44.58
2023-02-28T13:51:55.986Z,43.69
2023-02-28T13:54:31.592Z,43.99
2023-02-28T13:57:05.311Z,44.25
2023-02-28T13:59:51.281Z,45.03
2023-02-28T14:02:41.941Z,45.44
2023-02-28T14:05:27.077Z,46.30
2023-02-28T14:08:05.373Z,46.27
2023-02-28T14:10:35.651Z,45.79
2023-02-28T14:13:14.592Z,45.42
2023-02-28T14:15:44.047Z,45.82
2023-02-28T14:18:34.505Z,45.58
2023-02-28T14:21:33.508Z,46.18
2023-02-28T14:24:21.249Z,46.35
2023-02-28T14:27:26.247Z,46.82
2023-02-28T14:30:07.806Z,46.75
2023-02-28T14:32:55.383Z,46.59
2023-02-28T14:35:43.071Z,45.82
2023-02-28T14:38:19.609Z,47.20
2023-02-28T14:40:48.374Z,47.44
2023-02-28T14:43:23.549Z,47.24
2023-02-28T14:45:56.724Z,47.32
2023-02-28T14:48:26.073Z,47.84
2023-02-28T14:50:56.008Z,47.56
2023-02-28T14:53:26.163Z,48.04
2023-02-28T14:55:53.758Z,47.90
2023-02-28T14:58:32.444Z,47.89
2023-02-28T15:01:01.490Z,49.01
2023-02-28T15:03:40.396Z,48.46
2023-02-28T15:06:15.565Z,48.35
2023-02-28T15:08:42.095Z,48.10
2023-02-28T15:11:24.977Z,48.02
2023-02-28T15:13:57.351Z,48.88
2023-02-28T15:16:32.633Z,48.69
2023-02-28T15:19:02.535Z,48.79
2023-02-28T15:21:31.210Z,48.86
2023-02-28T15:24:04.257Z,48.95
2023-02-28T15:26:34.502Z,49.00
2023-02-28T15:29:05.691Z,48.75
2023-02-28T15:31:56.159Z,48.93
2023-02-28T15:34:42.553Z,49.05
2023-02-28T15:37:54.608Z,49.63
2023-02-28T15:40:28.232Z,49.62
2023-02-28T15:43:10.368Z,49.30
2023-02-28T15:45:47.121Z,49.62
2023-02-28T15:48:28.050Z,49.89
2023-02-28T15:51:09.438Z,49.85
2023-02-28T15:53:48.492Z,50.52
2023-02-28T15:56:28.871Z,50.74
2023-02-28T15:59:04.125Z,50.48
2023-02-28T16:01:33.874Z,50.92
2023-02-28T16:04:09.819Z,50.71
2023-02-28T16:06:59.634Z,50.30
2023-02-28T16:09:28.225Z,50.32
2023-02-28T16:11:58.107Z,50.43
2023-02-28T16:14:28.467Z,50.65
2023-02-28T16:16:58.139Z,50.41
2023-02-28T16:19:24.928Z,50.79
2023-02-28T16:21:52.081Z,51.02
2023-02-28T16:24:18.633Z,50.78
2023-02-28T16:26:49.139Z,51.36
2023-02-28T16:29:42.684Z,51.19
2023-02-28T16:32:09.240Z,51.59
2023-02-28T16:34:35.894Z,51.21
2023-02-28T16:37:02.363Z,51.43
2023-02-28T16:39:28.885Z,51.71
2023-02-28T16:41:55.380Z,51.59
2023-02-28T16:44:34.806Z,51.38
2023-02-28T16:47:02.619Z,51.94
2023-02-28T16:49:29.354Z,52.16
2023-02-28T16:51:55.924Z,52.29
2023-02-28T16:54:22.458Z,52.31
2023-02-28T16:56:49.574Z,52.35
2023-02-28T16:59:20.616Z,53.28
2023-02-28T17:01:47.173Z,53.19
2023-02-28T17:04:15.140Z,53.38
2023-02-28T17:06:41.798Z,54.11
2023-02-28T17:09:21.026Z,53.88
2023-02-28T17:11:48.935Z,54.27
2023-02-28T17:14:16.628Z,54.14
2023-02-28T17:16:43.824Z,54.07
2023-02-28T17:19:13.895Z,54.40
2023-02-28T17:21:42.694Z,54.67
2023-02-28T17:24:16.584Z,54.60
2023-02-28T17:26:45.875Z,54.78
2023-02-28T17:29:21.540Z,55.29
2023-02-28T17:31:48.152Z,54.82
2023-02-28T17:34:19.329Z,54.86
2023-02-28T17:36:46.978Z,55.04
2023-02-28T17:39:15.084Z,54.69
2023-02-28T17:41:44.334Z,55.02
2023-02-28T17:44:10.795Z,55.32
2023-02-28T17:46:37.793Z,55.79
2023-02-28T17:49:04.332Z,56.82
2023-02-28T17:51:30.846Z,56.32
2023-02-28T17:53:57.324Z,56.36
2023-02-28T17:56:26.277Z,56.47
2023-02-28T17:58:55.243Z,55.63
2023-02-28T18:01:22.584Z,57.29
2023-02-28T18:03:49.391Z,57.78
2023-02-28T18:06:25.411Z,58.30
2023-02-28T18:08:52.609Z,58.06
2023-02-28T18:11:20.496Z,59.41
2023-02-28T18:13:48.867Z,60.30
2023-02-28T18:16:16.396Z,60.36
2023-02-28T18:18:43.842Z,60.52
2023-02-28T18:21:15.850Z,60.55
2023-02-28T18:23:48.170Z,60.05
2023-02-28T18:26:15.994Z,60.75
2023-02-28T18:28:44.436Z,61.23
2023-02-28T18:31:20.717Z,61.11
2023-02-28T18:33:52.155Z,61.54
2023-02-28T18:36:20.844Z,60.81
2023-02-28T18:38:48.257Z,61.17
2023-02-28T18:41:14.742Z,61.03
2023-02-28T18:43:41.234Z,61.42
2023-02-28T18:46:14.055Z,61.67
2023-02-28T18:48:40.558Z,62.27
2023-02-28T18:51:26.758Z,63.31
2023-02-28T18:53:53.619Z,63.28
2023-02-28T18:56:23.118Z,62.60
2023-02-28T18:58:50.490Z,64.07
2023-02-28T19:01:21.064Z,63.71
2023-02-28T19:03:49.034Z,64.74
2023-02-28T19:06:16.472Z,64.40
2023-02-28T19:08:43.101Z,64.82
2023-02-28T19:11:15.746Z,65.31
2023-02-28T19:13:43.097Z,64.94
2023-02-28T19:16:11.691Z,66.24
2023-02-28T19:18:38.232Z,66.22
2023-02-28T19:21:10.160Z,64.86
2023-02-28T19:23:38.281Z,64.91
2023-02-28T19:26:25.098Z,65.34
2023-02-28T19:28:51.635Z,64.06
2023-02-28T19:31:21.845Z,63.79
2023-02-28T19:33:48.514Z,63.49
2023-02-28T19:36:15.669Z,63.52
2023-02-28T19:38:44.415Z,64.18
2023-02-28T19:41:12.434Z,64.89
2023-02-28T19:43:39.193Z,65.07
2023-02-28T19:46:06.760Z,65.09
2023-02-28T19:48:33.502Z,65.23
2023-02-28T19:51:06.260Z,64.90
2023-02-28T19:53:34.743Z,65.53
2023-02-28T19:56:01.451Z,65.46
2023-02-28T19:58:28.122Z,65.30
2023-02-28T20:00:54.704Z,65.43
2023-02-28T20:03:21.928Z,65.39
2023-02-28T20:06:03.062Z,65.38
2023-02-28T20:08:29.992Z,65.39
2023-02-28T20:11:06.514Z,66.08
2023-02-28T20:13:33.509Z,65.47
2023-02-28T20:16:01.874Z,65.01
2023-02-28T20:18:29.099Z,65.02
2023-02-28T20:20:55.859Z,65.86
2023-02-28T20:23:22.416Z,64.86
2023-02-28T20:25:51.312Z,64.90
2023-02-28T20:28:20.796Z,64.95
2023-02-28T20:30:48.740Z,66.40
2023-02-28T20:33:19.408Z,66.38
2023-02-28T20:35:45.974Z,66.10
2023-02-28T20:38:12.725Z,66.36
2023-02-28T20:40:39.381Z,66.33
2023-02-28T20:43:06.017Z,66.51
2023-02-28T20:45:32.572Z,65.56
2023-02-28T20:47:59.063Z,65.88
2023-02-28T20:50:25.516Z,66.36
2023-02-28T20:52:52.083Z,65.79
2023-02-28T20:55:18.716Z,65.64
2023-02-28T20:57:45.465Z,66.17
2023-02-28T21:00:16.245Z,66.76
2023-02-28T21:02:42.775Z,66.94
2023-02-28T21:05:09.709Z,66.21
2023-02-28T21:07:36.166Z,66.22
2023-02-28T21:10:02.858Z,67.64
2023-02-28T21:12:29.393Z,68.30
2023-02-28T21:14:55.889Z,68.30
2023-02-28T21:17:22.670Z,69.11
2023-02-28T21:19:49.125Z,68.67
2023-02-28T21:22:15.800Z,70.27
2023-02-28T21:24:42.398Z,69.92
2023-02-28T21:27:08.843Z,70.27
2023-02-28T21:29:36.175Z,70.46
2023-02-28T21:32:02.713Z,70.45
2023-02-28T21:34:29.203Z,70.81
2023-02-28T21:36:55.794Z,70.72
2023-02-28T21:39:25.900Z,70.57
2023-02-28T21:41:53.549Z,71.81
2023-02-28T21:44:21.384Z,71.62
2023-02-28T21:46:52.050Z,71.98
2023-02-28T21:49:18.719Z,72.78
2023-02-28T21:51:45.344Z,73.00
2023-02-28T21:54:12.374Z,73.40
2023-02-28T21:56:39.284Z,72.74
2023-02-28T21:59:07.121Z,72.03
2023-02-28T22:01:39.458Z,72.54
2023-02-28T22:04:08.395Z,72.33
2023-02-28T22:06:38.139Z,71.86
2023-02-28T22:09:07.498Z,71.97
2023-02-28T22:11:35.214Z,71.96
2023-02-28T22:14:01.947Z,71.90
2023-02-28T22:16:35.229Z,72.43
2023-02-28T22:19:06.408Z,73.02
2023-02-28T22:21:34.336Z,72.74
2023-02-28T22:24:01.865Z,72.89
2023-02-28T22:26:28.905Z,73.21
2023-02-28T22:28:55.614Z,73.17
2023-02-28T22:31:28.053Z,73.29
2023-02-28T22:33:57.788Z,72.85
2023-02-28T22:36:24.735Z,73.09
2023-02-28T22:38:52.594Z,73.91
2023-02-28T22:41:22.071Z,73.36
2023-02-28T22:43:54.371Z,73.88
2023-02-28T22:46:22.761Z,74.00
2023-02-28T22:48:49.948Z,73.52
2023-02-28T22:51:23.239Z,73.47
2023-02-28T22:53:51.302Z,73.61
2023-02-28T22:56:20.145Z,72.98
2023-02-28T22:59:04.697Z,73.32
2023-02-28T23:01:33.916Z,73.04
2023-02-28T23:04:01.230Z,73.65
2023-02-28T23:06:30.849Z,73.85
2023-02-28T23:09:00.601Z,73.87
2023-02-28T23:11:33.547Z,74.18
2023-02-28T23:14:00.627Z,73.93
2023-02-28T23:16:29.577Z,74.27
2023-02-28T23:18:57.444Z,74.08
2023-02-28T23:21:24.005Z,73.44
2023-02-28T23:23:50.469Z,73.58
2023-02-28T23:26:16.972Z,73.49
2023-02-28T23:28:43.466Z,72.82
2023-02-28T23:31:09.988Z,73.74
2023-02-28T23:33:36.911Z,72.87
2023-02-28T23:36:09.733Z,73.40
2023-02-28T23:38:36.285Z,73.16
2023-02-28T23:41:05.732Z,73.84
2023-02-28T23:43:32.207Z,73.18
2023-02-28T23:45:58.845Z,73.63
2023-02-28T23:48:25.350Z,73.78
2023-02-28T23:50:51.823Z,74.23
2023-02-28T23:53:18.431Z,73.31
2023-02-28T23:55:47.265Z,74.24
2023-02-28T23:58:13.996Z,73.80
